sensor_id;sensor_type;location;lat;lon;timestamp;temperature;humidity
12948;DHT22;6539;49.476;8.484;2022-09-30T00:03:55;13.60;99.90
12948;DHT22;6539;49.476;8.484;2022-09-30T00:06:22;13.50;99.90
12948;DHT22;6539;49.476;8.484;2022-09-30T00:08:54;13.60;99.90
12948;DHT22;6539;49.476;8.484;2022-09-30T00:11:25;13.40;99.90
12948;DHT22;6539;49.476;8.484;2022-09-30T00:13:59;13.40;99.90
12948;DHT22;6539;49.476;8.484;2022-09-30T00:16:31;13.40;99.90
12948;DHT22;6539;49.476;8.484;2022-09-30T00:18:58;13.50;99.90
12948;DHT22;6539;49.476;8.484;2022-09-30T00:21:25;13.40;99.90
12948;DHT22;6539;49.476;8.484;2022-09-30T00:23:55;13.20;99.90
12948;DHT22;6539;49.476;8.484;2022-09-30T00:26:22;13.30;99.90
12948;DHT22;6539;49.476;8.484;2022-09-30T00:28:56;13.20;99.90
12948;DHT22;6539;49.476;8.484;2022-09-30T00:31:25;13.30;99.90
12948;DHT22;6539;49.476;8.484;2022-09-30T00:39:00;13.60;99.90
12948;DHT22;6539;49.476;8.484;2022-09-30T00:41:26;13.00;99.90
12948;DHT22;6539;49.476;8.484;2022-09-30T00:46:32;13.10;99.90
12948;DHT22;6539;49.476;8.484;2022-09-30T00:49:19;13.20;99.90
12948;DHT22;6539;49.476;8.484;2022-09-30T00:51:53;12.90;99.90
12948;DHT22;6539;49.476;8.484;2022-09-30T00:54:25;13.10;99.90
12948;DHT22;6539;49.476;8.484;2022-09-30T00:56:58;13.10;99.90
12948;DHT22;6539;49.476;8.484;2022-09-30T00:59:36;13.10;99.90
12948;DHT22;6539;49.476;8.484;2022-09-30T01:02:11;13.00;99.90
12948;DHT22;6539;49.476;8.484;2022-09-30T01:04:42;13.00;99.90
12948;DHT22;6539;49.476;8.484;2022-09-30T01:09:40;13.00;99.90
12948;DHT22;6539;49.476;8.484;2022-09-30T01:12:12;13.00;99.90
12948;DHT22;6539;49.476;8.484;2022-09-30T01:14:41;13.10;99.90
12948;DHT22;6539;49.476;8.484;2022-09-30T01:20:26;13.10;99.90
12948;DHT22;6539;49.476;8.484;2022-09-30T01:23:11;13.00;99.90
12948;DHT22;6539;49.476;8.484;2022-09-30T01:51:49;12.90;99.90
12948;DHT22;6539;49.476;8.484;2022-09-30T01:54:51;12.90;99.90
12948;DHT22;6539;49.476;8.484;2022-09-30T01:57:51;13.20;99.90
12948;DHT22;6539;49.476;8.484;2022-09-30T02:00:23;12.70;99.90
12948;DHT22;6539;49.476;8.484;2022-09-30T02:03:04;12.90;99.90
12948;DHT22;6539;49.476;8.484;2022-09-30T02:05:46;12.70;99.90
12948;DHT22;6539;49.476;8.484;2022-09-30T02:08:25;12.70;99.90
12948;DHT22;6539;49.476;8.484;2022-09-30T02:11:06;12.90;99.90
12948;DHT22;6539;49.476;8.484;2022-09-30T02:13:44;12.80;99.90
12948;DHT22;6539;49.476;8.484;2022-09-30T02:16:20;12.80;99.90
12948;DHT22;6539;49.476;8.484;2022-09-30T02:18:57;12.70;99.90
12948;DHT22;6539;49.476;8.484;2022-09-30T02:21:35;12.90;99.90
12948;DHT22;6539;49.476;8.484;2022-09-30T02:24:09;12.60;99.90
12948;DHT22;6539;49.476;8.484;2022-09-30T02:26:44;12.60;99.90
12948;DHT22;6539;49.476;8.484;2022-09-30T02:29:20;12.80;99.90
12948;DHT22;6539;49.476;8.484;2022-09-30T02:31:53;12.90;99.90
12948;DHT22;6539;49.476;8.484;2022-09-30T02:34:44;12.80;99.90
12948;DHT22;6539;49.476;8.484;2022-09-30T02:37:23;13.00;99.90
12948;DHT22;6539;49.476;8.484;2022-09-30T02:43:14;12.70;99.90
12948;DHT22;6539;49.476;8.484;2022-09-30T02:46:03;12.50;99.90
12948;DHT22;6539;49.476;8.484;2022-09-30T02:48:43;12.70;99.90
12948;DHT22;6539;49.476;8.484;2022-09-30T02:51:25;12.40;99.90
12948;DHT22;6539;49.476;8.484;2022-09-30T02:54:23;12.80;99.90
12948;DHT22;6539;49.476;8.484;2022-09-30T02:59:40;12.80;99.90
12948;DHT22;6539;49.476;8.484;2022-09-30T03:04:34;12.40;99.90
12948;DHT22;6539;49.476;8.484;2022-09-30T03:07:10;12.20;99.90
12948;DHT22;6539;49.476;8.484;2022-09-30T03:17:41;12.30;99.90
12948;DHT22;6539;49.476;8.484;2022-09-30T03:29:08;12.00;99.90
12948;DHT22;6539;49.476;8.484;2022-09-30T03:37:40;12.30;99.90
12948;DHT22;6539;49.476;8.484;2022-09-30T03:43:50;12.20;99.90
12948;DHT22;6539;49.476;8.484;2022-09-30T03:49:53;12.20;99.90
12948;DHT22;6539;49.476;8.484;2022-09-30T03:52:27;12.10;99.90
12948;DHT22;6539;49.476;8.484;2022-09-30T03:54:58;12.20;99.90
12948;DHT22;6539;49.476;8.484;2022-09-30T03:57:28;12.10;99.90
12948;DHT22;6539;49.476;8.484;2022-09-30T03:59:56;12.10;99.90
12948;DHT22;6539;49.476;8.484;2022-09-30T04:02:25;11.90;99.90
12948;DHT22;6539;49.476;8.484;2022-09-30T04:04:53;11.00;99.90
12948;DHT22;6539;49.476;8.484;2022-09-30T04:17:04;11.80;99.90
12948;DHT22;6539;49.476;8.484;2022-09-30T04:19:30;12.40;99.90
12948;DHT22;6539;49.476;8.484;2022-09-30T04:34:13;12.30;99.90
12948;DHT22;6539;49.476;8.484;2022-09-30T04:36:39;12.20;99.90
12948;DHT22;6539;49.476;8.484;2022-09-30T04:46:34;12.20;99.90
12948;DHT22;6539;49.476;8.484;2022-09-30T04:49:06;11.90;99.90
12948;DHT22;6539;49.476;8.484;2022-09-30T04:51:32;12.00;99.90
12948;DHT22;6539;49.476;8.484;2022-09-30T04:54:03;11.80;99.90
12948;DHT22;6539;49.476;8.484;2022-09-30T04:56:28;12.00;99.90
12948;DHT22;6539;49.476;8.484;2022-09-30T05:06:18;11.60;99.90
12948;DHT22;6539;49.476;8.484;2022-09-30T05:11:16;11.50;99.90
12948;DHT22;6539;49.476;8.484;2022-09-30T05:16:11;11.90;99.90
12948;DHT22;6539;49.476;8.484;2022-09-30T05:21:15;11.40;99.90
12948;DHT22;6539;49.476;8.484;2022-09-30T05:26:16;11.10;99.90
12948;DHT22;6539;49.476;8.484;2022-09-30T05:28:44;11.40;99.90
12948;DHT22;6539;49.476;8.484;2022-09-30T05:31:10;11.30;99.90
12948;DHT22;6539;49.476;8.484;2022-09-30T05:36:05;11.20;99.90
12948;DHT22;6539;49.476;8.484;2022-09-30T05:38:32;11.20;99.90
12948;DHT22;6539;49.476;8.484;2022-09-30T05:41:13;11.50;99.90
12948;DHT22;6539;49.476;8.484;2022-09-30T05:43:44;11.30;99.90
12948;DHT22;6539;49.476;8.484;2022-09-30T05:46:11;11.40;99.90
12948;DHT22;6539;49.476;8.484;2022-09-30T05:51:06;10.90;99.90
12948;DHT22;6539;49.476;8.484;2022-09-30T05:53:33;11.30;99.90
12948;DHT22;6539;49.476;8.484;2022-09-30T05:56:06;11.00;99.90
12948;DHT22;6539;49.476;8.484;2022-09-30T05:58:36;11.50;99.90
12948;DHT22;6539;49.476;8.484;2022-09-30T06:01:06;11.30;99.90
12948;DHT22;6539;49.476;8.484;2022-09-30T06:03:34;11.20;99.90
12948;DHT22;6539;49.476;8.484;2022-09-30T06:06:00;11.20;99.90
12948;DHT22;6539;49.476;8.484;2022-09-30T06:13:27;11.40;99.90
12948;DHT22;6539;49.476;8.484;2022-09-30T06:15:59;11.70;99.90
12948;DHT22;6539;49.476;8.484;2022-09-30T06:18:29;11.70;99.90
12948;DHT22;6539;49.476;8.484;2022-09-30T06:21:01;11.50;99.90
12948;DHT22;6539;49.476;8.484;2022-09-30T06:23:29;11.70;99.90
12948;DHT22;6539;49.476;8.484;2022-09-30T06:26:08;11.60;99.90
12948;DHT22;6539;49.476;8.484;2022-09-30T06:28:36;11.20;99.90
12948;DHT22;6539;49.476;8.484;2022-09-30T06:31:03;11.50;99.90
12948;DHT22;6539;49.476;8.484;2022-09-30T06:33:30;11.50;99.90
12948;DHT22;6539;49.476;8.484;2022-09-30T06:38:34;11.60;99.90
12948;DHT22;6539;49.476;8.484;2022-09-30T06:41:02;11.70;99.90
12948;DHT22;6539;49.476;8.484;2022-09-30T06:45:54;12.60;99.90
12948;DHT22;6539;49.476;8.484;2022-09-30T06:48:20;12.60;99.90
12948;DHT22;6539;49.476;8.484;2022-09-30T06:50:48;13.10;99.90
12948;DHT22;6539;49.476;8.484;2022-09-30T06:58:14;14.70;99.90
12948;DHT22;6539;49.476;8.484;2022-09-30T07:00:42;15.30;99.90
12948;DHT22;6539;49.476;8.484;2022-09-30T07:03:27;15.40;99.90
12948;DHT22;6539;49.476;8.484;2022-09-30T07:05:57;15.70;99.90
12948;DHT22;6539;49.476;8.484;2022-09-30T07:08:25;15.70;99.90
12948;DHT22;6539;49.476;8.484;2022-09-30T07:11:10;16.10;99.90
12948;DHT22;6539;49.476;8.484;2022-09-30T07:13:46;16.90;99.90
12948;DHT22;6539;49.476;8.484;2022-09-30T07:16:14;16.90;99.90
12948;DHT22;6539;49.476;8.484;2022-09-30T07:18:41;17.20;99.90
12948;DHT22;6539;49.476;8.484;2022-09-30T07:21:08;16.40;99.90
12948;DHT22;6539;49.476;8.484;2022-09-30T07:23:37;15.70;99.90
12948;DHT22;6539;49.476;8.484;2022-09-30T07:26:16;16.60;99.90
12948;DHT22;6539;49.476;8.484;2022-09-30T07:28:44;16.50;99.90
12948;DHT22;6539;49.476;8.484;2022-09-30T07:31:18;16.80;99.90
12948;DHT22;6539;49.476;8.484;2022-09-30T07:33:46;16.90;99.90
12948;DHT22;6539;49.476;8.484;2022-09-30T07:36:14;17.10;99.90
12948;DHT22;6539;49.476;8.484;2022-09-30T07:38:43;16.90;99.90
12948;DHT22;6539;49.476;8.484;2022-09-30T07:41:18;17.50;99.90
12948;DHT22;6539;49.476;8.484;2022-09-30T07:43:46;17.50;99.90
12948;DHT22;6539;49.476;8.484;2022-09-30T07:46:19;17.60;99.90
12948;DHT22;6539;49.476;8.484;2022-09-30T07:48:49;17.60;99.90
12948;DHT22;6539;49.476;8.484;2022-09-30T07:51:27;17.90;99.90
12948;DHT22;6539;49.476;8.484;2022-09-30T07:53:59;17.60;99.90
12948;DHT22;6539;49.476;8.484;2022-09-30T07:56:28;18.00;99.90
12948;DHT22;6539;49.476;8.484;2022-09-30T07:58:55;18.80;99.90
12948;DHT22;6539;49.476;8.484;2022-09-30T08:01:23;19.20;99.90
12948;DHT22;6539;49.476;8.484;2022-09-30T08:03:53;19.90;99.90
12948;DHT22;6539;49.476;8.484;2022-09-30T08:06:26;19.90;99.90
12948;DHT22;6539;49.476;8.484;2022-09-30T08:08:55;18.90;99.90
12948;DHT22;6539;49.476;8.484;2022-09-30T08:11:26;19.40;99.90
12948;DHT22;6539;49.476;8.484;2022-09-30T08:13:55;19.10;99.90
12948;DHT22;6539;49.476;8.484;2022-09-30T08:16:24;19.10;99.90
12948;DHT22;6539;49.476;8.484;2022-09-30T08:18:59;19.60;99.90
12948;DHT22;6539;49.476;8.484;2022-09-30T08:21:26;19.30;99.90
12948;DHT22;6539;49.476;8.484;2022-09-30T08:23:53;19.40;99.90
12948;DHT22;6539;49.476;8.484;2022-09-30T08:26:19;19.60;99.90
12948;DHT22;6539;49.476;8.484;2022-09-30T08:28:51;20.10;99.90
12948;DHT22;6539;49.476;8.484;2022-09-30T08:31:21;20.20;99.90
12948;DHT22;6539;49.476;8.484;2022-09-30T08:33:48;20.30;99.90
12948;DHT22;6539;49.476;8.484;2022-09-30T08:36:21;20.40;99.90
12948;DHT22;6539;49.476;8.484;2022-09-30T08:38:52;20.40;99.90
12948;DHT22;6539;49.476;8.484;2022-09-30T08:44:45;20.40;99.90
12948;DHT22;6539;49.476;8.484;2022-09-30T08:53:15;20.30;99.90
12948;DHT22;6539;49.476;8.484;2022-09-30T08:55:50;20.80;99.90
12948;DHT22;6539;49.476;8.484;2022-09-30T08:58:37;20.80;99.90
12948;DHT22;6539;49.476;8.484;2022-09-30T09:04:00;20.60;99.90
12948;DHT22;6539;49.476;8.484;2022-09-30T09:06:47;21.20;99.90
12948;DHT22;6539;49.476;8.484;2022-09-30T09:21:53;22.80;99.90
12948;DHT22;6539;49.476;8.484;2022-09-30T09:24:31;22.80;99.90
12948;DHT22;6539;49.476;8.484;2022-09-30T09:32:35;22.10;99.90
12948;DHT22;6539;49.476;8.484;2022-09-30T09:35:11;22.40;99.90
12948;DHT22;6539;49.476;8.484;2022-09-30T09:46:52;22.50;99.90
12948;DHT22;6539;49.476;8.484;2022-09-30T09:54:45;23.70;99.90
12948;DHT22;6539;49.476;8.484;2022-09-30T09:57:17;23.70;99.90
12948;DHT22;6539;49.476;8.484;2022-09-30T10:00:02;23.80;99.90
12948;DHT22;6539;49.476;8.484;2022-09-30T10:02:58;20.90;99.90
12948;DHT22;6539;49.476;8.484;2022-09-30T10:05:26;20.90;99.90
12948;DHT22;6539;49.476;8.484;2022-09-30T10:15:47;21.90;99.90
12948;DHT22;6539;49.476;8.484;2022-09-30T10:18:26;22.00;99.90
12948;DHT22;6539;49.476;8.484;2022-09-30T10:21:04;21.70;99.90
12948;DHT22;6539;49.476;8.484;2022-09-30T10:23:42;22.30;99.90
12948;DHT22;6539;49.476;8.484;2022-09-30T10:26:18;22.20;99.90
12948;DHT22;6539;49.476;8.484;2022-09-30T10:37:00;22.30;99.90
12948;DHT22;6539;49.476;8.484;2022-09-30T10:39:36;21.70;99.90
12948;DHT22;6539;49.476;8.484;2022-09-30T10:44:45;22.10;99.90
12948;DHT22;6539;49.476;8.484;2022-09-30T10:47:20;22.20;99.90
12948;DHT22;6539;49.476;8.484;2022-09-30T10:49:55;21.80;99.90
12948;DHT22;6539;49.476;8.484;2022-09-30T10:52:45;21.30;99.90
12948;DHT22;6539;49.476;8.484;2022-09-30T10:57:50;21.90;99.90
12948;DHT22;6539;49.476;8.484;2022-09-30T11:00:20;21.70;99.90
12948;DHT22;6539;49.476;8.484;2022-09-30T11:03:10;22.30;99.90
12948;DHT22;6539;49.476;8.484;2022-09-30T11:05:43;22.40;99.90
12948;DHT22;6539;49.476;8.484;2022-09-30T11:25:02;21.40;99.90
12948;DHT22;6539;49.476;8.484;2022-09-30T11:28:10;21.10;99.90
12948;DHT22;6539;49.476;8.484;2022-09-30T11:32:07;21.60;99.90
12948;DHT22;6539;49.476;8.484;2022-09-30T11:37:11;21.70;99.90
12948;DHT22;6539;49.476;8.484;2022-09-30T11:46:46;21.70;99.90
12948;DHT22;6539;49.476;8.484;2022-09-30T11:58:04;21.60;99.90
12948;DHT22;6539;49.476;8.484;2022-09-30T12:00:40;22.10;99.90
12948;DHT22;6539;49.476;8.484;2022-09-30T12:03:14;21.70;99.90
12948;DHT22;6539;49.476;8.484;2022-09-30T12:10:51;21.60;99.90
12948;DHT22;6539;49.476;8.484;2022-09-30T12:13:28;21.70;99.90
12948;DHT22;6539;49.476;8.484;2022-09-30T12:16:00;21.70;99.90
12948;DHT22;6539;49.476;8.484;2022-09-30T12:18:35;21.90;99.90
12948;DHT22;6539;49.476;8.484;2022-09-30T12:21:41;21.10;99.90
12948;DHT22;6539;49.476;8.484;2022-09-30T12:26:48;21.40;99.90
12948;DHT22;6539;49.476;8.484;2022-09-30T12:40:55;21.10;99.90
12948;DHT22;6539;49.476;8.484;2022-09-30T12:47:06;21.60;99.90
12948;DHT22;6539;49.476;8.484;2022-09-30T12:49:40;21.70;99.90
12948;DHT22;6539;49.476;8.484;2022-09-30T12:52:14;21.50;99.90
12948;DHT22;6539;49.476;8.484;2022-09-30T12:54:57;20.80;99.90
12948;DHT22;6539;49.476;8.484;2022-09-30T12:57:29;21.30;99.90
12948;DHT22;6539;49.476;8.484;2022-09-30T13:00:05;21.60;99.90
12948;DHT22;6539;49.476;8.484;2022-09-30T13:02:54;21.50;99.90
12948;DHT22;6539;49.476;8.484;2022-09-30T13:10:43;20.30;99.90
12948;DHT22;6539;49.476;8.484;2022-09-30T13:13:26;19.70;99.90
12948;DHT22;6539;49.476;8.484;2022-09-30T13:15:57;19.30;99.90
12948;DHT22;6539;49.476;8.484;2022-09-30T13:23:39;20.40;99.90
12948;DHT22;6539;49.476;8.484;2022-09-30T13:47:20;20.60;99.90
12948;DHT22;6539;49.476;8.484;2022-09-30T13:50:14;20.20;99.90
12948;DHT22;6539;49.476;8.484;2022-09-30T13:52:50;19.70;99.90
12948;DHT22;6539;49.476;8.484;2022-09-30T13:55:27;19.40;99.90
12948;DHT22;6539;49.476;8.484;2022-09-30T14:10:13;18.90;99.90
12948;DHT22;6539;49.476;8.484;2022-09-30T14:13:18;19.10;99.90
12948;DHT22;6539;49.476;8.484;2022-09-30T14:16:04;18.80;99.90
12948;DHT22;6539;49.476;8.484;2022-09-30T14:21:55;19.10;99.90
12948;DHT22;6539;49.476;8.484;2022-09-30T14:24:30;18.80;99.90
12948;DHT22;6539;49.476;8.484;2022-09-30T14:27:32;19.30;99.90
12948;DHT22;6539;49.476;8.484;2022-09-30T14:30:16;19.10;99.90
12948;DHT22;6539;49.476;8.484;2022-09-30T14:32:58;18.80;99.90
12948;DHT22;6539;49.476;8.484;2022-09-30T14:35:32;18.60;99.90
12948;DHT22;6539;49.476;8.484;2022-09-30T14:38:08;19.00;99.90
12948;DHT22;6539;49.476;8.484;2022-09-30T14:40:52;18.70;99.90
12948;DHT22;6539;49.476;8.484;2022-09-30T14:43:26;18.90;99.90
12948;DHT22;6539;49.476;8.484;2022-09-30T14:46:05;19.10;99.90
12948;DHT22;6539;49.476;8.484;2022-09-30T14:48:42;18.90;99.90
12948;DHT22;6539;49.476;8.484;2022-09-30T14:51:16;19.30;99.90
12948;DHT22;6539;49.476;8.484;2022-09-30T14:53:55;19.10;99.90
12948;DHT22;6539;49.476;8.484;2022-09-30T14:56:28;19.40;99.90
12948;DHT22;6539;49.476;8.484;2022-09-30T14:59:06;19.50;99.90
12948;DHT22;6539;49.476;8.484;2022-09-30T15:04:13;19.50;99.90
12948;DHT22;6539;49.476;8.484;2022-09-30T15:06:49;19.00;99.90
12948;DHT22;6539;49.476;8.484;2022-09-30T15:09:26;18.90;99.90
12948;DHT22;6539;49.476;8.484;2022-09-30T15:12:05;19.00;99.90
12948;DHT22;6539;49.476;8.484;2022-09-30T15:14:49;18.70;99.90
12948;DHT22;6539;49.476;8.484;2022-09-30T15:17:23;18.90;99.90
12948;DHT22;6539;49.476;8.484;2022-09-30T15:19:52;18.70;99.90
12948;DHT22;6539;49.476;8.484;2022-09-30T15:22:23;18.70;99.90
12948;DHT22;6539;49.476;8.484;2022-09-30T15:24:53;18.30;99.90
12948;DHT22;6539;49.476;8.484;2022-09-30T15:27:31;18.30;99.90
12948;DHT22;6539;49.476;8.484;2022-09-30T15:30:24;18.40;99.90
12948;DHT22;6539;49.476;8.484;2022-09-30T15:33:01;18.60;99.90
12948;DHT22;6539;49.476;8.484;2022-09-30T15:35:32;18.70;99.90
12948;DHT22;6539;49.476;8.484;2022-09-30T15:38:20;18.40;99.90
12948;DHT22;6539;49.476;8.484;2022-09-30T15:41:07;18.60;99.90
12948;DHT22;6539;49.476;8.484;2022-09-30T15:43:50;18.60;99.90
12948;DHT22;6539;49.476;8.484;2022-09-30T15:46:25;18.50;99.90
12948;DHT22;6539;49.476;8.484;2022-09-30T15:49:01;18.20;99.90
12948;DHT22;6539;49.476;8.484;2022-09-30T15:51:35;18.10;99.90
12948;DHT22;6539;49.476;8.484;2022-09-30T15:56:41;18.50;99.90
12948;DHT22;6539;49.476;8.484;2022-09-30T15:59:13;18.00;99.90
12948;DHT22;6539;49.476;8.484;2022-09-30T16:01:48;17.80;99.90
12948;DHT22;6539;49.476;8.484;2022-09-30T16:11:54;18.30;99.90
12948;DHT22;6539;49.476;8.484;2022-09-30T16:14:26;18.40;99.90
12948;DHT22;6539;49.476;8.484;2022-09-30T16:16:58;18.50;99.90
12948;DHT22;6539;49.476;8.484;2022-09-30T16:19:29;18.20;99.90
12948;DHT22;6539;49.476;8.484;2022-09-30T16:26:56;18.30;99.90
12948;DHT22;6539;49.476;8.484;2022-09-30T16:29:27;18.40;99.90
12948;DHT22;6539;49.476;8.484;2022-09-30T16:31:56;17.90;99.90
12948;DHT22;6539;49.476;8.484;2022-09-30T16:34:28;17.60;99.90
12948;DHT22;6539;49.476;8.484;2022-09-30T16:37:08;17.90;99.90
12948;DHT22;6539;49.476;8.484;2022-09-30T16:42:02;17.90;99.90
12948;DHT22;6539;49.476;8.484;2022-09-30T16:44:31;17.50;99.90
12948;DHT22;6539;49.476;8.484;2022-09-30T16:47:03;17.80;99.90
12948;DHT22;6539;49.476;8.484;2022-09-30T16:51:55;17.60;99.90
12948;DHT22;6539;49.476;8.484;2022-09-30T16:59:16;17.00;99.90
12948;DHT22;6539;49.476;8.484;2022-09-30T17:01:42;17.10;99.90
12948;DHT22;6539;49.476;8.484;2022-09-30T17:06:36;17.00;99.90
12948;DHT22;6539;49.476;8.484;2022-09-30T17:09:03;17.00;99.90
12948;DHT22;6539;49.476;8.484;2022-09-30T17:11:33;17.10;99.90
12948;DHT22;6539;49.476;8.484;2022-09-30T17:14:03;16.90;99.90
12948;DHT22;6539;49.476;8.484;2022-09-30T17:16:32;16.90;99.90
12948;DHT22;6539;49.476;8.484;2022-09-30T17:18:58;17.40;99.90
12948;DHT22;6539;49.476;8.484;2022-09-30T17:26:22;17.10;99.90
12948;DHT22;6539;49.476;8.484;2022-09-30T17:31:14;16.60;99.90
12948;DHT22;6539;49.476;8.484;2022-09-30T17:33:42;16.80;99.90
12948;DHT22;6539;49.476;8.484;2022-09-30T17:36:10;16.60;99.90
12948;DHT22;6539;49.476;8.484;2022-09-30T17:43:55;16.80;99.90
12948;DHT22;6539;49.476;8.484;2022-09-30T17:46:23;16.40;99.90
12948;DHT22;6539;49.476;8.484;2022-09-30T17:48:54;16.30;99.90
12948;DHT22;6539;49.476;8.484;2022-09-30T17:51:24;16.50;99.90
12948;DHT22;6539;49.476;8.484;2022-09-30T17:58:48;16.70;99.90
12948;DHT22;6539;49.476;8.484;2022-09-30T18:01:18;16.20;99.90
12948;DHT22;6539;49.476;8.484;2022-09-30T18:03:45;16.30;99.90
12948;DHT22;6539;49.476;8.484;2022-09-30T18:06:13;16.50;99.90
12948;DHT22;6539;49.476;8.484;2022-09-30T18:08:41;16.30;99.90
12948;DHT22;6539;49.476;8.484;2022-09-30T18:16:04;16.30;99.90
12948;DHT22;6539;49.476;8.484;2022-09-30T18:18:35;16.30;99.90
12948;DHT22;6539;49.476;8.484;2022-09-30T18:23:34;16.40;99.90
12948;DHT22;6539;49.476;8.484;2022-09-30T18:28:29;16.40;99.90
12948;DHT22;6539;49.476;8.484;2022-09-30T18:30:56;16.10;99.90
12948;DHT22;6539;49.476;8.484;2022-09-30T18:33:24;16.40;99.90
12948;DHT22;6539;49.476;8.484;2022-09-30T18:38:22;16.40;99.90
12948;DHT22;6539;49.476;8.484;2022-09-30T18:40:48;16.40;99.90
12948;DHT22;6539;49.476;8.484;2022-09-30T18:45:54;16.10;99.90
12948;DHT22;6539;49.476;8.484;2022-09-30T18:48:24;16.10;99.90
12948;DHT22;6539;49.476;8.484;2022-09-30T18:51:03;16.00;99.90
12948;DHT22;6539;49.476;8.484;2022-09-30T18:53:33;15.70;99.90
12948;DHT22;6539;49.476;8.484;2022-09-30T18:56:02;15.60;99.90
12948;DHT22;6539;49.476;8.484;2022-09-30T18:58:29;15.60;99.90
12948;DHT22;6539;49.476;8.484;2022-09-30T19:01:00;15.60;99.90
12948;DHT22;6539;49.476;8.484;2022-09-30T19:03:29;15.50;99.90
12948;DHT22;6539;49.476;8.484;2022-09-30T19:05:56;15.80;99.90
12948;DHT22;6539;49.476;8.484;2022-09-30T19:08:26;15.20;99.90
12948;DHT22;6539;49.476;8.484;2022-09-30T19:10:51;15.30;99.90
12948;DHT22;6539;49.476;8.484;2022-09-30T19:13:20;15.70;99.90
12948;DHT22;6539;49.476;8.484;2022-09-30T19:15:51;15.50;99.90
12948;DHT22;6539;49.476;8.484;2022-09-30T19:18:17;15.00;99.90
12948;DHT22;6539;49.476;8.484;2022-09-30T19:20:43;15.10;99.90
12948;DHT22;6539;49.476;8.484;2022-09-30T19:23:08;15.20;99.90
12948;DHT22;6539;49.476;8.484;2022-09-30T19:25:35;15.30;99.90
12948;DHT22;6539;49.476;8.484;2022-09-30T19:32:57;15.20;99.90
12948;DHT22;6539;49.476;8.484;2022-09-30T19:35:26;14.80;99.90
12948;DHT22;6539;49.476;8.484;2022-09-30T19:37:52;15.20;99.90
12948;DHT22;6539;49.476;8.484;2022-09-30T19:40:20;15.10;99.90
12948;DHT22;6539;49.476;8.484;2022-09-30T19:42:49;14.90;99.90
12948;DHT22;6539;49.476;8.484;2022-09-30T19:45:16;15.10;99.90
12948;DHT22;6539;49.476;8.484;2022-09-30T19:47:47;15.30;99.90
12948;DHT22;6539;49.476;8.484;2022-09-30T19:50:15;15.20;99.90
12948;DHT22;6539;49.476;8.484;2022-09-30T19:52:43;15.10;99.90
12948;DHT22;6539;49.476;8.484;2022-09-30T19:55:11;14.80;99.90
12948;DHT22;6539;49.476;8.484;2022-09-30T20:00:11;15.40;99.90
12948;DHT22;6539;49.476;8.484;2022-09-30T20:05:06;15.40;99.90
12948;DHT22;6539;49.476;8.484;2022-09-30T20:09:59;15.50;99.90
12948;DHT22;6539;49.476;8.484;2022-09-30T20:12:26;15.50;99.90
12948;DHT22;6539;49.476;8.484;2022-09-30T20:14:53;15.40;99.90
12948;DHT22;6539;49.476;8.484;2022-09-30T20:20:08;14.90;99.90
12948;DHT22;6539;49.476;8.484;2022-09-30T20:22:53;15.50;99.90
12948;DHT22;6539;49.476;8.484;2022-09-30T20:25:19;15.50;99.90
12948;DHT22;6539;49.476;8.484;2022-09-30T20:32:37;15.10;99.90
12948;DHT22;6539;49.476;8.484;2022-09-30T20:35:03;15.40;99.90
12948;DHT22;6539;49.476;8.484;2022-09-30T20:37:35;15.20;99.90
12948;DHT22;6539;49.476;8.484;2022-09-30T20:40:04;15.20;99.90
12948;DHT22;6539;49.476;8.484;2022-09-30T20:42:30;14.90;99.90
12948;DHT22;6539;49.476;8.484;2022-09-30T20:45:03;15.10;99.90
12948;DHT22;6539;49.476;8.484;2022-09-30T20:47:43;15.30;99.90
12948;DHT22;6539;49.476;8.484;2022-09-30T20:50:13;14.90;99.90
12948;DHT22;6539;49.476;8.484;2022-09-30T20:53:05;14.80;99.90
12948;DHT22;6539;49.476;8.484;2022-09-30T20:55:33;14.50;99.90
12948;DHT22;6539;49.476;8.484;2022-09-30T20:58:04;14.70;99.90
12948;DHT22;6539;49.476;8.484;2022-09-30T21:00:36;14.50;99.90
12948;DHT22;6539;49.476;8.484;2022-09-30T21:03:12;14.60;99.90
12948;DHT22;6539;49.476;8.484;2022-09-30T21:05:40;14.80;99.90
12948;DHT22;6539;49.476;8.484;2022-09-30T21:08:16;14.60;99.90
12948;DHT22;6539;49.476;8.484;2022-09-30T21:10:41;14.80;99.90
12948;DHT22;6539;49.476;8.484;2022-09-30T21:13:10;14.50;99.90
12948;DHT22;6539;49.476;8.484;2022-09-30T21:15:39;14.70;99.90
12948;DHT22;6539;49.476;8.484;2022-09-30T21:18:05;14.80;99.90
12948;DHT22;6539;49.476;8.484;2022-09-30T21:20:34;16.00;99.90
12948;DHT22;6539;49.476;8.484;2022-09-30T21:25:30;14.20;99.90
12948;DHT22;6539;49.476;8.484;2022-09-30T21:28:00;14.50;99.90
12948;DHT22;6539;49.476;8.484;2022-09-30T21:32:53;14.00;99.90
12948;DHT22;6539;49.476;8.484;2022-09-30T21:35:21;14.20;99.90
12948;DHT22;6539;49.476;8.484;2022-09-30T21:37:47;14.80;99.90
12948;DHT22;6539;49.476;8.484;2022-09-30T21:40:15;13.90;99.90
12948;DHT22;6539;49.476;8.484;2022-09-30T21:45:08;13.30;99.90
12948;DHT22;6539;49.476;8.484;2022-09-30T21:47:34;13.30;99.90
12948;DHT22;6539;49.476;8.484;2022-09-30T21:54:53;13.90;99.90
12948;DHT22;6539;49.476;8.484;2022-09-30T21:59:47;13.50;99.90
12948;DHT22;6539;49.476;8.484;2022-09-30T22:04:40;13.60;99.90
12948;DHT22;6539;49.476;8.484;2022-09-30T22:07:08;13.40;99.90
12948;DHT22;6539;49.476;8.484;2022-09-30T22:12:03;13.80;99.90
12948;DHT22;6539;49.476;8.484;2022-09-30T22:14:34;14.00;99.90
12948;DHT22;6539;49.476;8.484;2022-09-30T22:21:54;13.70;99.90
12948;DHT22;6539;49.476;8.484;2022-09-30T22:24:21;13.70;99.90
12948;DHT22;6539;49.476;8.484;2022-09-30T22:29:14;13.60;99.90
12948;DHT22;6539;49.476;8.484;2022-09-30T22:31:42;13.30;99.90
12948;DHT22;6539;49.476;8.484;2022-09-30T22:34:12;13.60;99.90
12948;DHT22;6539;49.476;8.484;2022-09-30T22:39:42;13.90;99.90
12948;DHT22;6539;49.476;8.484;2022-09-30T22:44:35;13.50;99.90
12948;DHT22;6539;49.476;8.484;2022-09-30T22:47:09;13.40;99.90
12948;DHT22;6539;49.476;8.484;2022-09-30T22:49:38;13.20;99.90
12948;DHT22;6539;49.476;8.484;2022-09-30T22:54:36;13.10;99.90
12948;DHT22;6539;49.476;8.484;2022-09-30T22:57:03;13.40;99.90
12948;DHT22;6539;49.476;8.484;2022-09-30T22:59:33;13.10;99.90
12948;DHT22;6539;49.476;8.484;2022-09-30T23:09:25;13.10;99.90
12948;DHT22;6539;49.476;8.484;2022-09-30T23:11:52;12.60;99.90
12948;DHT22;6539;49.476;8.484;2022-09-30T23:16:51;12.60;99.90
12948;DHT22;6539;49.476;8.484;2022-09-30T23:19:17;12.70;99.90
12948;DHT22;6539;49.476;8.484;2022-09-30T23:21:46;12.90;99.90
12948;DHT22;6539;49.476;8.484;2022-09-30T23:26:39;12.40;99.90
12948;DHT22;6539;49.476;8.484;2022-09-30T23:29:10;12.50;99.90
12948;DHT22;6539;49.476;8.484;2022-09-30T23:36:37;12.60;99.90
12948;DHT22;6539;49.476;8.484;2022-09-30T23:44:03;12.60;99.90
12948;DHT22;6539;49.476;8.484;2022-09-30T23:46:30;12.50;99.90
12948;DHT22;6539;49.476;8.484;2022-09-30T23:48:56;12.50;99.90
12948;DHT22;6539;49.476;8.484;2022-09-30T23:51:22;12.40;99.90
12948;DHT22;6539;49.476;8.484;2022-09-30T23:53:51;12.20;99.90
12948;DHT22;6539;49.476;8.484;2022-09-30T23:56:18;12.40;99.90
